sensor_id;sensor_type;location;lat;lon;timestamp;temperature;humidity
10089;DHT22;51898;49.864;8.550;2023-07-13T00:02:23;19.20;57.00
10089;DHT22;51898;49.864;8.550;2023-07-13T00:05:25;19.10;57.30
10089;DHT22;51898;49.864;8.550;2023-07-13T00:08:30;19.10;57.20
10089;DHT22;51898;49.864;8.550;2023-07-13T00:11:34;19.10;57.10
10089;DHT22;51898;49.864;8.550;2023-07-13T00:14:35;19.00;57.00
10089;DHT22;51898;49.864;8.550;2023-07-13T00:17:37;19.00;56.90
10089;DHT22;51898;49.864;8.550;2023-07-13T00:20:40;19.00;57.10
10089;DHT22;51898;49.864;8.550;2023-07-13T00:23:43;19.00;57.60
10089;DHT22;51898;49.864;8.550;2023-07-13T00:26:44;19.00;57.70
10089;DHT22;51898;49.864;8.550;2023-07-13T00:29:47;18.90;57.90
10089;DHT22;51898;49.864;8.550;2023-07-13T00:32:48;18.90;58.30
10089;DHT22;51898;49.864;8.550;2023-07-13T00:35:58;18.80;58.70
10089;DHT22;51898;49.864;8.550;2023-07-13T00:39:00;18.70;59.10
10089;DHT22;51898;49.864;8.550;2023-07-13T00:42:03;18.60;58.70
10089;DHT22;51898;49.864;8.550;2023-07-13T00:48:13;18.60;58.90
10089;DHT22;51898;49.864;8.550;2023-07-13T00:51:22;18.50;59.20
10089;DHT22;51898;49.864;8.550;2023-07-13T00:54:39;18.50;59.40
10089;DHT22;51898;49.864;8.550;2023-07-13T00:57:42;18.40;59.30
10089;DHT22;51898;49.864;8.550;2023-07-13T01:00:45;18.40;59.10
10089;DHT22;51898;49.864;8.550;2023-07-13T01:03:48;18.30;59.10
10089;DHT22;51898;49.864;8.550;2023-07-13T01:06:50;18.20;59.20
10089;DHT22;51898;49.864;8.550;2023-07-13T01:09:51;18.20;59.30
10089;DHT22;51898;49.864;8.550;2023-07-13T01:12:54;18.10;59.30
10089;DHT22;51898;49.864;8.550;2023-07-13T01:15:58;18.10;59.90
10089;DHT22;51898;49.864;8.550;2023-07-13T01:22:20;17.90;60.60
10089;DHT22;51898;49.864;8.550;2023-07-13T01:25:26;17.90;60.90
10089;DHT22;51898;49.864;8.550;2023-07-13T01:28:28;17.80;61.20
10089;DHT22;51898;49.864;8.550;2023-07-13T01:31:30;17.80;61.00
10089;DHT22;51898;49.864;8.550;2023-07-13T01:34:32;17.70;60.90
10089;DHT22;51898;49.864;8.550;2023-07-13T01:37:33;17.60;61.30
10089;DHT22;51898;49.864;8.550;2023-07-13T01:40:38;17.60;61.60
10089;DHT22;51898;49.864;8.550;2023-07-13T01:43:39;17.50;61.90
10089;DHT22;51898;49.864;8.550;2023-07-13T01:46:41;17.40;62.50
10089;DHT22;51898;49.864;8.550;2023-07-13T01:49:43;17.40;62.90
10089;DHT22;51898;49.864;8.550;2023-07-13T01:52:47;17.40;62.90
10089;DHT22;51898;49.864;8.550;2023-07-13T01:55:49;17.30;63.30
10089;DHT22;51898;49.864;8.550;2023-07-13T01:58:52;17.20;63.40
10089;DHT22;51898;49.864;8.550;2023-07-13T02:01:54;17.10;63.60
10089;DHT22;51898;49.864;8.550;2023-07-13T02:04:56;17.10;63.90
10089;DHT22;51898;49.864;8.550;2023-07-13T02:07:57;17.00;64.00
10089;DHT22;51898;49.864;8.550;2023-07-13T02:11:02;17.10;64.20
10089;DHT22;51898;49.864;8.550;2023-07-13T02:14:04;17.00;64.50
10089;DHT22;51898;49.864;8.550;2023-07-13T02:17:06;17.00;64.60
10089;DHT22;51898;49.864;8.550;2023-07-13T02:20:08;16.90;64.80
10089;DHT22;51898;49.864;8.550;2023-07-13T02:23:11;16.90;65.00
10089;DHT22;51898;49.864;8.550;2023-07-13T02:26:13;16.80;65.40
10089;DHT22;51898;49.864;8.550;2023-07-13T02:29:15;16.80;65.50
10089;DHT22;51898;49.864;8.550;2023-07-13T02:32:17;16.70;65.80
10089;DHT22;51898;49.864;8.550;2023-07-13T02:35:19;16.60;65.90
10089;DHT22;51898;49.864;8.550;2023-07-13T02:38:20;16.50;66.10
10089;DHT22;51898;49.864;8.550;2023-07-13T02:41:22;16.40;66.20
10089;DHT22;51898;49.864;8.550;2023-07-13T02:44:24;16.40;66.20
10089;DHT22;51898;49.864;8.550;2023-07-13T02:47:26;16.40;66.30
10089;DHT22;51898;49.864;8.550;2023-07-13T02:50:28;16.40;66.40
10089;DHT22;51898;49.864;8.550;2023-07-13T02:53:30;16.50;66.30
10089;DHT22;51898;49.864;8.550;2023-07-13T02:56:32;16.60;65.60
10089;DHT22;51898;49.864;8.550;2023-07-13T02:59:34;16.60;65.50
10089;DHT22;51898;49.864;8.550;2023-07-13T03:02:35;16.70;65.60
10089;DHT22;51898;49.864;8.550;2023-07-13T03:05:38;16.70;65.30
10089;DHT22;51898;49.864;8.550;2023-07-13T03:08:40;16.70;65.30
10089;DHT22;51898;49.864;8.550;2023-07-13T03:11:41;16.60;65.10
10089;DHT22;51898;49.864;8.550;2023-07-13T03:14:43;16.60;65.20
10089;DHT22;51898;49.864;8.550;2023-07-13T03:17:45;16.50;65.60
10089;DHT22;51898;49.864;8.550;2023-07-13T03:20:50;16.40;66.10
10089;DHT22;51898;49.864;8.550;2023-07-13T03:23:52;16.40;66.30
10089;DHT22;51898;49.864;8.550;2023-07-13T03:26:54;16.30;67.30
10089;DHT22;51898;49.864;8.550;2023-07-13T03:29:55;16.20;68.20
10089;DHT22;51898;49.864;8.550;2023-07-13T03:32:57;16.20;68.00
10089;DHT22;51898;49.864;8.550;2023-07-13T03:35:59;16.20;68.20
10089;DHT22;51898;49.864;8.550;2023-07-13T03:39:02;16.10;68.60
10089;DHT22;51898;49.864;8.550;2023-07-13T03:42:05;16.00;69.60
10089;DHT22;51898;49.864;8.550;2023-07-13T03:45:07;15.80;70.40
10089;DHT22;51898;49.864;8.550;2023-07-13T03:48:09;15.70;71.20
10089;DHT22;51898;49.864;8.550;2023-07-13T03:51:12;15.60;71.40
10089;DHT22;51898;49.864;8.550;2023-07-13T03:54:15;15.60;71.60
10089;DHT22;51898;49.864;8.550;2023-07-13T03:57:18;15.60;72.10
10089;DHT22;51898;49.864;8.550;2023-07-13T04:00:20;15.60;72.30
10089;DHT22;51898;49.864;8.550;2023-07-13T04:03:22;15.60;72.30
10089;DHT22;51898;49.864;8.550;2023-07-13T04:06:27;15.70;72.10
10089;DHT22;51898;49.864;8.550;2023-07-13T04:09:29;15.80;71.70
10089;DHT22;51898;49.864;8.550;2023-07-13T04:12:31;16.00;71.30
10089;DHT22;51898;49.864;8.550;2023-07-13T04:15:33;16.30;70.60
10089;DHT22;51898;49.864;8.550;2023-07-13T04:18:35;16.60;69.80
10089;DHT22;51898;49.864;8.550;2023-07-13T04:21:37;17.00;68.80
10089;DHT22;51898;49.864;8.550;2023-07-13T04:24:39;17.50;66.90
10089;DHT22;51898;49.864;8.550;2023-07-13T04:27:40;18.00;64.80
10089;DHT22;51898;49.864;8.550;2023-07-13T04:30:42;18.50;63.20
10089;DHT22;51898;49.864;8.550;2023-07-13T04:33:44;19.00;61.70
10089;DHT22;51898;49.864;8.550;2023-07-13T04:36:48;19.50;61.00
10089;DHT22;51898;49.864;8.550;2023-07-13T04:39:51;19.70;60.40
10089;DHT22;51898;49.864;8.550;2023-07-13T04:42:53;20.20;59.10
10089;DHT22;51898;49.864;8.550;2023-07-13T04:45:55;20.40;57.60
10089;DHT22;51898;49.864;8.550;2023-07-13T04:48:56;20.70;56.80
10089;DHT22;51898;49.864;8.550;2023-07-13T04:51:59;20.90;56.20
10089;DHT22;51898;49.864;8.550;2023-07-13T04:55:01;21.20;55.30
10089;DHT22;51898;49.864;8.550;2023-07-13T04:58:05;21.30;54.30
10089;DHT22;51898;49.864;8.550;2023-07-13T05:01:07;21.40;53.90
10089;DHT22;51898;49.864;8.550;2023-07-13T05:04:10;21.50;53.60
10089;DHT22;51898;49.864;8.550;2023-07-13T05:07:12;21.50;53.50
10089;DHT22;51898;49.864;8.550;2023-07-13T05:10:14;21.50;53.30
10089;DHT22;51898;49.864;8.550;2023-07-13T05:13:15;21.60;53.30
10089;DHT22;51898;49.864;8.550;2023-07-13T05:16:17;21.60;52.90
10089;DHT22;51898;49.864;8.550;2023-07-13T05:19:19;21.60;52.80
10089;DHT22;51898;49.864;8.550;2023-07-13T05:22:21;21.50;53.10
10089;DHT22;51898;49.864;8.550;2023-07-13T05:25:23;21.50;53.00
10089;DHT22;51898;49.864;8.550;2023-07-13T05:28:25;21.50;53.10
10089;DHT22;51898;49.864;8.550;2023-07-13T05:31:27;21.50;53.10
10089;DHT22;51898;49.864;8.550;2023-07-13T05:34:29;21.40;53.30
10089;DHT22;51898;49.864;8.550;2023-07-13T05:37:31;21.40;53.40
10089;DHT22;51898;49.864;8.550;2023-07-13T05:40:33;21.40;53.10
10089;DHT22;51898;49.864;8.550;2023-07-13T05:43:34;21.30;53.60
10089;DHT22;51898;49.864;8.550;2023-07-13T05:46:36;21.30;53.50
10089;DHT22;51898;49.864;8.550;2023-07-13T05:49:38;21.50;53.20
10089;DHT22;51898;49.864;8.550;2023-07-13T05:52:40;21.60;53.00
10089;DHT22;51898;49.864;8.550;2023-07-13T05:55:43;21.80;52.90
10089;DHT22;51898;49.864;8.550;2023-07-13T05:58:44;21.90;52.60
10089;DHT22;51898;49.864;8.550;2023-07-13T06:01:46;21.90;52.70
10089;DHT22;51898;49.864;8.550;2023-07-13T06:04:48;22.00;52.00
10089;DHT22;51898;49.864;8.550;2023-07-13T06:07:53;22.10;51.90
10089;DHT22;51898;49.864;8.550;2023-07-13T06:10:58;22.10;51.60
10089;DHT22;51898;49.864;8.550;2023-07-13T06:14:02;22.20;51.50
10089;DHT22;51898;49.864;8.550;2023-07-13T06:17:05;22.30;51.40
10089;DHT22;51898;49.864;8.550;2023-07-13T06:20:07;22.40;50.80
10089;DHT22;51898;49.864;8.550;2023-07-13T06:23:09;22.40;50.80
10089;DHT22;51898;49.864;8.550;2023-07-13T06:26:11;22.40;50.70
10089;DHT22;51898;49.864;8.550;2023-07-13T06:29:13;22.50;50.10
10089;DHT22;51898;49.864;8.550;2023-07-13T06:32:15;22.50;50.90
10089;DHT22;51898;49.864;8.550;2023-07-13T06:35:16;22.70;50.70
10089;DHT22;51898;49.864;8.550;2023-07-13T06:38:18;22.80;49.10
10089;DHT22;51898;49.864;8.550;2023-07-13T06:41:20;22.60;47.40
10089;DHT22;51898;49.864;8.550;2023-07-13T06:44:23;22.30;48.90
10089;DHT22;51898;49.864;8.550;2023-07-13T06:47:25;22.40;49.20
10089;DHT22;51898;49.864;8.550;2023-07-13T06:50:27;22.50;47.50
10089;DHT22;51898;49.864;8.550;2023-07-13T06:53:29;22.50;47.60
10089;DHT22;51898;49.864;8.550;2023-07-13T06:56:31;22.50;47.80
10089;DHT22;51898;49.864;8.550;2023-07-13T06:59:33;22.40;47.20
10089;DHT22;51898;49.864;8.550;2023-07-13T07:02:34;22.50;47.60
10089;DHT22;51898;49.864;8.550;2023-07-13T07:05:36;22.80;47.50
10089;DHT22;51898;49.864;8.550;2023-07-13T07:08:38;22.90;46.80
10089;DHT22;51898;49.864;8.550;2023-07-13T07:11:39;23.00;47.30
10089;DHT22;51898;49.864;8.550;2023-07-13T07:15:01;23.00;46.10
10089;DHT22;51898;49.864;8.550;2023-07-13T07:18:03;23.00;46.40
10089;DHT22;51898;49.864;8.550;2023-07-13T07:21:05;23.00;46.40
10089;DHT22;51898;49.864;8.550;2023-07-13T07:24:07;23.00;46.40
10089;DHT22;51898;49.864;8.550;2023-07-13T07:27:09;23.00;46.30
10089;DHT22;51898;49.864;8.550;2023-07-13T07:30:13;23.20;45.90
10089;DHT22;51898;49.864;8.550;2023-07-13T07:33:18;23.20;45.30
10089;DHT22;51898;49.864;8.550;2023-07-13T07:36:19;23.30;45.40
10089;DHT22;51898;49.864;8.550;2023-07-13T07:39:24;23.40;45.80
10089;DHT22;51898;49.864;8.550;2023-07-13T07:42:26;23.50;45.80
10089;DHT22;51898;49.864;8.550;2023-07-13T07:45:27;23.50;46.20
10089;DHT22;51898;49.864;8.550;2023-07-13T07:48:30;23.60;45.30
10089;DHT22;51898;49.864;8.550;2023-07-13T07:51:31;23.60;45.20
10089;DHT22;51898;49.864;8.550;2023-07-13T07:54:33;23.30;46.00
10089;DHT22;51898;49.864;8.550;2023-07-13T07:57:56;23.20;45.80
10089;DHT22;51898;49.864;8.550;2023-07-13T08:01:07;23.40;46.40
10089;DHT22;51898;49.864;8.550;2023-07-13T08:04:12;23.70;45.50
10089;DHT22;51898;49.864;8.550;2023-07-13T08:07:34;23.80;44.30
10089;DHT22;51898;49.864;8.550;2023-07-13T08:10:36;23.90;45.10
10089;DHT22;51898;49.864;8.550;2023-07-13T08:13:38;24.10;44.10
10089;DHT22;51898;49.864;8.550;2023-07-13T08:16:40;24.20;45.20
10089;DHT22;51898;49.864;8.550;2023-07-13T08:19:42;24.50;44.00
10089;DHT22;51898;49.864;8.550;2023-07-13T08:22:43;24.50;43.60
10089;DHT22;51898;49.864;8.550;2023-07-13T08:25:51;24.40;42.90
10089;DHT22;51898;49.864;8.550;2023-07-13T08:28:53;24.40;43.60
10089;DHT22;51898;49.864;8.550;2023-07-13T08:31:55;24.40;43.30
10089;DHT22;51898;49.864;8.550;2023-07-13T08:34:56;24.70;42.90
10089;DHT22;51898;49.864;8.550;2023-07-13T08:37:58;24.80;43.30
10089;DHT22;51898;49.864;8.550;2023-07-13T08:41:13;24.70;42.80
10089;DHT22;51898;49.864;8.550;2023-07-13T08:44:24;24.50;42.90
10089;DHT22;51898;49.864;8.550;2023-07-13T08:47:28;24.50;42.50
10089;DHT22;51898;49.864;8.550;2023-07-13T08:50:35;24.40;42.60
10089;DHT22;51898;49.864;8.550;2023-07-13T08:54:02;24.50;41.90
10089;DHT22;51898;49.864;8.550;2023-07-13T08:57:15;24.60;42.00
10089;DHT22;51898;49.864;8.550;2023-07-13T09:00:18;24.40;41.80
10089;DHT22;51898;49.864;8.550;2023-07-13T09:03:23;24.40;41.70
10089;DHT22;51898;49.864;8.550;2023-07-13T09:06:34;24.10;42.30
10089;DHT22;51898;49.864;8.550;2023-07-13T09:15:56;23.60;43.40
10089;DHT22;51898;49.864;8.550;2023-07-13T09:19:02;23.60;44.20
10089;DHT22;51898;49.864;8.550;2023-07-13T09:22:16;23.60;44.60
10089;DHT22;51898;49.864;8.550;2023-07-13T09:25:30;23.60;44.10
10089;DHT22;51898;49.864;8.550;2023-07-13T09:28:38;23.70;43.70
10089;DHT22;51898;49.864;8.550;2023-07-13T09:31:46;23.80;43.20
10089;DHT22;51898;49.864;8.550;2023-07-13T09:34:51;24.10;43.60
10089;DHT22;51898;49.864;8.550;2023-07-13T09:37:58;24.40;43.30
10089;DHT22;51898;49.864;8.550;2023-07-13T09:41:26;24.60;41.20
10089;DHT22;51898;49.864;8.550;2023-07-13T09:44:33;25.00;40.00
10089;DHT22;51898;49.864;8.550;2023-07-13T09:47:40;25.10;39.60
10089;DHT22;51898;49.864;8.550;2023-07-13T09:50:43;25.60;39.90
10089;DHT22;51898;49.864;8.550;2023-07-13T09:53:45;25.80;39.70
10089;DHT22;51898;49.864;8.550;2023-07-13T09:56:47;25.60;39.00
10089;DHT22;51898;49.864;8.550;2023-07-13T09:59:51;25.40;39.00
10089;DHT22;51898;49.864;8.550;2023-07-13T10:03:05;25.30;39.20
10089;DHT22;51898;49.864;8.550;2023-07-13T10:06:16;25.40;39.00
10089;DHT22;51898;49.864;8.550;2023-07-13T10:09:18;25.20;39.60
10089;DHT22;51898;49.864;8.550;2023-07-13T10:12:21;25.30;39.50
10089;DHT22;51898;49.864;8.550;2023-07-13T10:15:25;25.50;39.10
10089;DHT22;51898;49.864;8.550;2023-07-13T10:18:28;25.50;38.80
10089;DHT22;51898;49.864;8.550;2023-07-13T10:21:41;25.40;38.90
10089;DHT22;51898;49.864;8.550;2023-07-13T10:24:44;25.50;38.90
10089;DHT22;51898;49.864;8.550;2023-07-13T10:27:49;25.50;38.10
10089;DHT22;51898;49.864;8.550;2023-07-13T10:30:53;25.60;37.70
10089;DHT22;51898;49.864;8.550;2023-07-13T10:33:56;25.70;37.40
10089;DHT22;51898;49.864;8.550;2023-07-13T10:36:58;25.70;37.10
10089;DHT22;51898;49.864;8.550;2023-07-13T10:40:01;25.70;37.30
10089;DHT22;51898;49.864;8.550;2023-07-13T10:43:18;25.60;37.00
10089;DHT22;51898;49.864;8.550;2023-07-13T10:46:24;26.00;37.10
10089;DHT22;51898;49.864;8.550;2023-07-13T10:49:30;26.30;36.50
10089;DHT22;51898;49.864;8.550;2023-07-13T10:52:42;26.20;37.30
10089;DHT22;51898;49.864;8.550;2023-07-13T10:59:48;26.20;35.80
10089;DHT22;51898;49.864;8.550;2023-07-13T11:02:27;26.10;36.50
10089;DHT22;51898;49.864;8.550;2023-07-13T11:05:32;26.20;37.10
10089;DHT22;51898;49.864;8.550;2023-07-13T11:11:50;26.20;36.40
10089;DHT22;51898;49.864;8.550;2023-07-13T11:17:56;26.10;36.50
10089;DHT22;51898;49.864;8.550;2023-07-13T11:21:16;25.90;36.30
10089;DHT22;51898;49.864;8.550;2023-07-13T11:25:00;25.70;35.90
10089;DHT22;51898;49.864;8.550;2023-07-13T11:31:15;26.10;37.00
10089;DHT22;51898;49.864;8.550;2023-07-13T11:34:24;26.30;36.00
10089;DHT22;51898;49.864;8.550;2023-07-13T11:37:29;26.70;35.80
10089;DHT22;51898;49.864;8.550;2023-07-13T11:40:32;27.20;35.30
10089;DHT22;51898;49.864;8.550;2023-07-13T11:43:34;27.50;34.90
10089;DHT22;51898;49.864;8.550;2023-07-13T11:46:35;27.80;34.90
10089;DHT22;51898;49.864;8.550;2023-07-13T11:49:45;27.50;34.30
10089;DHT22;51898;49.864;8.550;2023-07-13T11:52:51;27.40;35.20
10089;DHT22;51898;49.864;8.550;2023-07-13T11:55:56;27.50;34.20
10089;DHT22;51898;49.864;8.550;2023-07-13T11:59:05;27.40;35.30
10089;DHT22;51898;49.864;8.550;2023-07-13T12:02:17;27.70;34.90
10089;DHT22;51898;49.864;8.550;2023-07-13T12:05:24;27.90;34.20
10089;DHT22;51898;49.864;8.550;2023-07-13T12:08:26;28.20;33.40
10089;DHT22;51898;49.864;8.550;2023-07-13T12:11:30;28.60;33.30
10089;DHT22;51898;49.864;8.550;2023-07-13T12:14:33;29.00;32.90
10089;DHT22;51898;49.864;8.550;2023-07-13T12:17:35;29.10;32.30
10089;DHT22;51898;49.864;8.550;2023-07-13T12:20:38;28.80;32.30
10089;DHT22;51898;49.864;8.550;2023-07-13T12:23:43;28.40;32.20
10089;DHT22;51898;49.864;8.550;2023-07-13T12:26:51;28.30;33.40
10089;DHT22;51898;49.864;8.550;2023-07-13T12:30:00;28.20;33.50
10089;DHT22;51898;49.864;8.550;2023-07-13T12:33:07;27.90;33.80
10089;DHT22;51898;49.864;8.550;2023-07-13T12:36:12;27.70;34.30
10089;DHT22;51898;49.864;8.550;2023-07-13T12:42:25;28.10;33.30
10089;DHT22;51898;49.864;8.550;2023-07-13T12:45:29;28.00;33.60
10089;DHT22;51898;49.864;8.550;2023-07-13T12:48:39;27.80;34.20
10089;DHT22;51898;49.864;8.550;2023-07-13T12:51:56;27.70;34.00
10089;DHT22;51898;49.864;8.550;2023-07-13T12:55:08;27.70;35.00
10089;DHT22;51898;49.864;8.550;2023-07-13T12:58:39;27.30;34.90
10089;DHT22;51898;49.864;8.550;2023-07-13T13:01:47;27.10;34.80
10089;DHT22;51898;49.864;8.550;2023-07-13T13:04:51;27.10;35.10
10089;DHT22;51898;49.864;8.550;2023-07-13T13:07:53;27.10;35.10
10089;DHT22;51898;49.864;8.550;2023-07-13T13:10:54;27.10;34.90
10089;DHT22;51898;49.864;8.550;2023-07-13T13:13:56;26.90;35.30
10089;DHT22;51898;49.864;8.550;2023-07-13T13:16:58;26.90;35.70
10089;DHT22;51898;49.864;8.550;2023-07-13T13:19:59;27.00;35.80
10089;DHT22;51898;49.864;8.550;2023-07-13T13:23:01;27.10;35.00
10089;DHT22;51898;49.864;8.550;2023-07-13T13:26:10;26.90;35.30
10089;DHT22;51898;49.864;8.550;2023-07-13T13:29:20;26.80;35.40
10089;DHT22;51898;49.864;8.550;2023-07-13T13:32:22;26.80;35.30
10089;DHT22;51898;49.864;8.550;2023-07-13T13:35:23;26.80;35.00
10089;DHT22;51898;49.864;8.550;2023-07-13T13:38:27;26.90;35.10
10089;DHT22;51898;49.864;8.550;2023-07-13T13:41:29;26.80;35.00
10089;DHT22;51898;49.864;8.550;2023-07-13T13:44:30;26.60;35.80
10089;DHT22;51898;49.864;8.550;2023-07-13T13:47:33;26.60;35.00
10089;DHT22;51898;49.864;8.550;2023-07-13T13:50:37;26.40;35.60
10089;DHT22;51898;49.864;8.550;2023-07-13T13:53:39;26.20;36.10
10089;DHT22;51898;49.864;8.550;2023-07-13T13:56:47;26.20;36.10
10089;DHT22;51898;49.864;8.550;2023-07-13T13:59:49;26.40;36.40
10089;DHT22;51898;49.864;8.550;2023-07-13T14:02:50;26.70;36.30
10089;DHT22;51898;49.864;8.550;2023-07-13T14:05:54;26.90;35.70
10089;DHT22;51898;49.864;8.550;2023-07-13T14:08:57;26.90;35.30
10089;DHT22;51898;49.864;8.550;2023-07-13T14:11:59;26.70;35.80
10089;DHT22;51898;49.864;8.550;2023-07-13T14:15:00;26.40;35.60
10089;DHT22;51898;49.864;8.550;2023-07-13T14:18:02;26.40;35.60
10089;DHT22;51898;49.864;8.550;2023-07-13T14:21:15;26.40;36.10
10089;DHT22;51898;49.864;8.550;2023-07-13T14:24:17;26.50;36.40
10089;DHT22;51898;49.864;8.550;2023-07-13T14:27:19;26.60;35.80
10089;DHT22;51898;49.864;8.550;2023-07-13T14:30:22;26.80;35.80
10089;DHT22;51898;49.864;8.550;2023-07-13T14:33:23;27.00;35.60
10089;DHT22;51898;49.864;8.550;2023-07-13T14:39:30;27.20;35.20
10089;DHT22;51898;49.864;8.550;2023-07-13T14:42:35;27.40;35.30
10089;DHT22;51898;49.864;8.550;2023-07-13T14:45:42;27.50;35.30
10089;DHT22;51898;49.864;8.550;2023-07-13T14:48:45;27.60;35.10
10089;DHT22;51898;49.864;8.550;2023-07-13T14:51:46;27.80;35.10
10089;DHT22;51898;49.864;8.550;2023-07-13T14:54:48;28.10;35.20
10089;DHT22;51898;49.864;8.550;2023-07-13T14:57:50;28.10;34.50
10089;DHT22;51898;49.864;8.550;2023-07-13T15:00:52;27.90;34.00
10089;DHT22;51898;49.864;8.550;2023-07-13T15:03:57;27.50;34.50
10089;DHT22;51898;49.864;8.550;2023-07-13T15:07:01;27.30;34.50
10089;DHT22;51898;49.864;8.550;2023-07-13T15:13:20;26.60;35.90
10089;DHT22;51898;49.864;8.550;2023-07-13T15:16:24;26.10;36.30
10089;DHT22;51898;49.864;8.550;2023-07-13T15:19:27;25.70;37.10
10089;DHT22;51898;49.864;8.550;2023-07-13T15:22:28;25.40;37.70
10089;DHT22;51898;49.864;8.550;2023-07-13T15:25:32;25.20;38.10
10089;DHT22;51898;49.864;8.550;2023-07-13T15:28:37;25.20;38.10
10089;DHT22;51898;49.864;8.550;2023-07-13T15:31:38;25.50;38.00
10089;DHT22;51898;49.864;8.550;2023-07-13T15:34:41;25.60;37.60
10089;DHT22;51898;49.864;8.550;2023-07-13T15:37:45;25.50;37.90
10089;DHT22;51898;49.864;8.550;2023-07-13T15:40:49;25.50;38.00
10089;DHT22;51898;49.864;8.550;2023-07-13T15:43:54;25.60;37.60
10089;DHT22;51898;49.864;8.550;2023-07-13T15:46:57;25.70;38.50
10089;DHT22;51898;49.864;8.550;2023-07-13T15:49:59;26.40;37.20
10089;DHT22;51898;49.864;8.550;2023-07-13T15:53:01;26.70;36.00
10089;DHT22;51898;49.864;8.550;2023-07-13T15:56:23;27.10;35.00
10089;DHT22;51898;49.864;8.550;2023-07-13T15:59:25;27.40;34.80
10089;DHT22;51898;49.864;8.550;2023-07-13T16:02:26;27.00;35.00
10089;DHT22;51898;49.864;8.550;2023-07-13T16:05:28;27.20;35.30
10089;DHT22;51898;49.864;8.550;2023-07-13T16:08:32;28.00;34.20
10089;DHT22;51898;49.864;8.550;2023-07-13T16:11:36;28.80;33.20
10089;DHT22;51898;49.864;8.550;2023-07-13T16:14:40;29.30;32.70
10089;DHT22;51898;49.864;8.550;2023-07-13T16:17:44;29.60;31.90
10089;DHT22;51898;49.864;8.550;2023-07-13T16:20:47;29.60;31.50
10089;DHT22;51898;49.864;8.550;2023-07-13T16:23:50;29.60;32.00
10089;DHT22;51898;49.864;8.550;2023-07-13T16:27:04;29.00;32.40
10089;DHT22;51898;49.864;8.550;2023-07-13T16:30:15;28.60;32.40
10089;DHT22;51898;49.864;8.550;2023-07-13T16:33:19;28.20;33.00
10089;DHT22;51898;49.864;8.550;2023-07-13T16:36:23;27.90;33.00
10089;DHT22;51898;49.864;8.550;2023-07-13T16:39:27;28.00;33.50
10089;DHT22;51898;49.864;8.550;2023-07-13T16:42:29;28.00;33.00
10089;DHT22;51898;49.864;8.550;2023-07-13T16:45:32;28.40;33.20
10089;DHT22;51898;49.864;8.550;2023-07-13T16:48:37;29.20;32.40
10089;DHT22;51898;49.864;8.550;2023-07-13T16:51:39;29.50;31.40
10089;DHT22;51898;49.864;8.550;2023-07-13T16:54:41;29.00;31.80
10089;DHT22;51898;49.864;8.550;2023-07-13T16:57:45;28.50;33.00
10089;DHT22;51898;49.864;8.550;2023-07-13T17:00:47;28.70;33.30
10089;DHT22;51898;49.864;8.550;2023-07-13T17:03:51;28.40;33.00
10089;DHT22;51898;49.864;8.550;2023-07-13T17:07:02;28.00;33.70
10089;DHT22;51898;49.864;8.550;2023-07-13T17:10:16;27.70;34.30
10089;DHT22;51898;49.864;8.550;2023-07-13T17:13:19;27.80;34.70
10089;DHT22;51898;49.864;8.550;2023-07-13T17:16:22;28.20;34.10
10089;DHT22;51898;49.864;8.550;2023-07-13T17:19:30;28.60;32.80
10089;DHT22;51898;49.864;8.550;2023-07-13T17:22:32;28.50;32.10
10089;DHT22;51898;49.864;8.550;2023-07-13T17:25:34;27.70;33.30
10089;DHT22;51898;49.864;8.550;2023-07-13T17:28:37;27.70;33.70
10089;DHT22;51898;49.864;8.550;2023-07-13T17:31:39;27.90;34.10
10089;DHT22;51898;49.864;8.550;2023-07-13T17:34:41;28.10;33.30
10089;DHT22;51898;49.864;8.550;2023-07-13T17:37:46;27.80;33.60
10089;DHT22;51898;49.864;8.550;2023-07-13T17:40:50;27.60;34.00
10089;DHT22;51898;49.864;8.550;2023-07-13T17:43:52;27.50;34.40
10089;DHT22;51898;49.864;8.550;2023-07-13T17:46:54;28.10;33.80
10089;DHT22;51898;49.864;8.550;2023-07-13T17:49:56;28.90;32.60
10089;DHT22;51898;49.864;8.550;2023-07-13T17:52:58;29.60;32.00
10089;DHT22;51898;49.864;8.550;2023-07-13T17:56:00;30.20;30.80
10089;DHT22;51898;49.864;8.550;2023-07-13T17:59:03;30.30;30.70
10089;DHT22;51898;49.864;8.550;2023-07-13T18:02:17;30.20;30.50
10089;DHT22;51898;49.864;8.550;2023-07-13T18:05:20;29.70;31.00
10089;DHT22;51898;49.864;8.550;2023-07-13T18:08:30;29.60;31.20
10089;DHT22;51898;49.864;8.550;2023-07-13T18:11:32;29.90;31.00
10089;DHT22;51898;49.864;8.550;2023-07-13T18:14:33;30.20;31.00
10089;DHT22;51898;49.864;8.550;2023-07-13T18:17:37;30.10;30.80
10089;DHT22;51898;49.864;8.550;2023-07-13T18:20:40;29.60;30.90
10089;DHT22;51898;49.864;8.550;2023-07-13T18:23:46;29.40;31.50
10089;DHT22;51898;49.864;8.550;2023-07-13T18:26:48;29.20;31.60
10089;DHT22;51898;49.864;8.550;2023-07-13T18:29:50;28.90;32.00
10089;DHT22;51898;49.864;8.550;2023-07-13T18:32:53;28.60;32.30
10089;DHT22;51898;49.864;8.550;2023-07-13T18:36:01;28.40;32.40
10089;DHT22;51898;49.864;8.550;2023-07-13T18:39:03;28.10;32.90
10089;DHT22;51898;49.864;8.550;2023-07-13T18:42:08;27.90;33.00
10089;DHT22;51898;49.864;8.550;2023-07-13T18:45:12;27.50;33.60
10089;DHT22;51898;49.864;8.550;2023-07-13T18:48:21;27.10;34.20
10089;DHT22;51898;49.864;8.550;2023-07-13T18:51:24;26.60;34.80
10089;DHT22;51898;49.864;8.550;2023-07-13T18:54:26;26.30;35.70
10089;DHT22;51898;49.864;8.550;2023-07-13T18:57:28;25.90;36.10
10089;DHT22;51898;49.864;8.550;2023-07-13T19:00:29;25.60;36.40
10089;DHT22;51898;49.864;8.550;2023-07-13T19:03:33;25.40;36.70
10089;DHT22;51898;49.864;8.550;2023-07-13T19:06:38;25.20;37.00
10089;DHT22;51898;49.864;8.550;2023-07-13T19:09:40;25.00;37.30
10089;DHT22;51898;49.864;8.550;2023-07-13T19:12:46;24.80;37.70
10089;DHT22;51898;49.864;8.550;2023-07-13T19:15:49;24.50;38.10
10089;DHT22;51898;49.864;8.550;2023-07-13T19:18:51;24.30;39.10
10089;DHT22;51898;49.864;8.550;2023-07-13T19:21:55;24.00;39.80
10089;DHT22;51898;49.864;8.550;2023-07-13T19:24:58;23.80;40.10
10089;DHT22;51898;49.864;8.550;2023-07-13T19:28:24;23.50;40.30
10089;DHT22;51898;49.864;8.550;2023-07-13T19:31:30;23.30;40.70
10089;DHT22;51898;49.864;8.550;2023-07-13T19:34:34;23.20;41.30
10089;DHT22;51898;49.864;8.550;2023-07-13T19:37:36;23.00;41.90
10089;DHT22;51898;49.864;8.550;2023-07-13T19:40:39;22.90;42.50
10089;DHT22;51898;49.864;8.550;2023-07-13T19:43:42;22.70;42.70
10089;DHT22;51898;49.864;8.550;2023-07-13T19:46:44;22.60;43.00
10089;DHT22;51898;49.864;8.550;2023-07-13T19:49:47;22.40;43.50
10089;DHT22;51898;49.864;8.550;2023-07-13T19:52:51;22.20;43.90
10089;DHT22;51898;49.864;8.550;2023-07-13T19:55:53;22.10;44.10
10089;DHT22;51898;49.864;8.550;2023-07-13T19:58:54;22.00;44.70